sensor_id;sensor_type;location;lat;lon;timestamp;temperature;humidity
6293;DHT22;3179;54.350;10.102;2023-08-07T00:01:24;18.60;99.90
6293;DHT22;3179;54.350;10.102;2023-08-07T00:03:52;18.50;99.90
6293;DHT22;3179;54.350;10.102;2023-08-07T00:06:18;18.50;99.90
6293;DHT22;3179;54.350;10.102;2023-08-07T00:08:45;18.50;99.90
6293;DHT22;3179;54.350;10.102;2023-08-07T00:11:12;18.50;99.90
6293;DHT22;3179;54.350;10.102;2023-08-07T00:13:39;18.50;99.90
6293;DHT22;3179;54.350;10.102;2023-08-07T00:16:06;18.50;99.90
6293;DHT22;3179;54.350;10.102;2023-08-07T00:18:33;18.50;99.90
6293;DHT22;3179;54.350;10.102;2023-08-07T00:21:01;18.50;99.90
6293;DHT22;3179;54.350;10.102;2023-08-07T00:23:27;18.40;99.90
6293;DHT22;3179;54.350;10.102;2023-08-07T00:25:54;18.40;99.90
6293;DHT22;3179;54.350;10.102;2023-08-07T00:28:21;18.40;99.90
6293;DHT22;3179;54.350;10.102;2023-08-07T00:30:48;18.40;99.90
6293;DHT22;3179;54.350;10.102;2023-08-07T00:33:14;18.40;99.90
6293;DHT22;3179;54.350;10.102;2023-08-07T00:35:41;18.40;99.90
6293;DHT22;3179;54.350;10.102;2023-08-07T00:38:09;18.40;99.90
6293;DHT22;3179;54.350;10.102;2023-08-07T00:40:36;18.40;99.90
6293;DHT22;3179;54.350;10.102;2023-08-07T00:43:04;18.30;99.90
6293;DHT22;3179;54.350;10.102;2023-08-07T00:45:35;18.30;99.90
6293;DHT22;3179;54.350;10.102;2023-08-07T00:48:03;18.40;99.90
6293;DHT22;3179;54.350;10.102;2023-08-07T00:50:30;18.30;99.90
6293;DHT22;3179;54.350;10.102;2023-08-07T00:52:57;18.30;99.90
6293;DHT22;3179;54.350;10.102;2023-08-07T00:55:25;18.30;99.90
6293;DHT22;3179;54.350;10.102;2023-08-07T00:57:52;18.30;99.90
6293;DHT22;3179;54.350;10.102;2023-08-07T01:00:20;18.30;99.90
6293;DHT22;3179;54.350;10.102;2023-08-07T01:02:47;18.30;99.90
6293;DHT22;3179;54.350;10.102;2023-08-07T01:05:16;18.30;99.90
6293;DHT22;3179;54.350;10.102;2023-08-07T01:07:46;18.30;99.90
6293;DHT22;3179;54.350;10.102;2023-08-07T01:10:14;18.30;99.90
6293;DHT22;3179;54.350;10.102;2023-08-07T01:12:46;18.30;99.90
6293;DHT22;3179;54.350;10.102;2023-08-07T01:15:17;18.30;99.90
6293;DHT22;3179;54.350;10.102;2023-08-07T01:17:46;18.30;99.90
6293;DHT22;3179;54.350;10.102;2023-08-07T01:20:13;18.20;99.90
6293;DHT22;3179;54.350;10.102;2023-08-07T01:22:42;18.20;99.90
6293;DHT22;3179;54.350;10.102;2023-08-07T01:25:08;18.20;99.90
6293;DHT22;3179;54.350;10.102;2023-08-07T01:27:37;18.20;99.90
6293;DHT22;3179;54.350;10.102;2023-08-07T01:30:14;18.20;99.90
6293;DHT22;3179;54.350;10.102;2023-08-07T01:32:49;18.20;99.90
6293;DHT22;3179;54.350;10.102;2023-08-07T01:35:22;18.20;99.90
6293;DHT22;3179;54.350;10.102;2023-08-07T01:37:53;18.20;99.90
6293;DHT22;3179;54.350;10.102;2023-08-07T01:40:22;18.20;99.90
6293;DHT22;3179;54.350;10.102;2023-08-07T01:42:49;18.10;99.90
6293;DHT22;3179;54.350;10.102;2023-08-07T01:45:23;18.20;99.90
6293;DHT22;3179;54.350;10.102;2023-08-07T01:47:50;18.20;99.90
6293;DHT22;3179;54.350;10.102;2023-08-07T01:50:18;18.10;99.90
6293;DHT22;3179;54.350;10.102;2023-08-07T01:52:44;18.10;99.90
6293;DHT22;3179;54.350;10.102;2023-08-07T01:55:13;18.10;99.90
6293;DHT22;3179;54.350;10.102;2023-08-07T01:57:39;18.10;99.90
6293;DHT22;3179;54.350;10.102;2023-08-07T02:00:07;18.10;99.90
6293;DHT22;3179;54.350;10.102;2023-08-07T02:02:34;18.10;99.90
6293;DHT22;3179;54.350;10.102;2023-08-07T02:05:01;18.10;99.90
6293;DHT22;3179;54.350;10.102;2023-08-07T02:07:28;18.10;99.90
6293;DHT22;3179;54.350;10.102;2023-08-07T02:09:55;18.10;99.90
6293;DHT22;3179;54.350;10.102;2023-08-07T02:12:23;18.10;99.90
6293;DHT22;3179;54.350;10.102;2023-08-07T02:14:50;18.10;99.90
6293;DHT22;3179;54.350;10.102;2023-08-07T02:17:19;18.10;99.90
6293;DHT22;3179;54.350;10.102;2023-08-07T02:19:46;18.10;99.90
6293;DHT22;3179;54.350;10.102;2023-08-07T02:22:13;18.00;99.90
6293;DHT22;3179;54.350;10.102;2023-08-07T02:24:39;18.00;99.90
6293;DHT22;3179;54.350;10.102;2023-08-07T02:27:06;18.00;99.90
6293;DHT22;3179;54.350;10.102;2023-08-07T02:29:34;18.00;99.90
6293;DHT22;3179;54.350;10.102;2023-08-07T02:32:02;18.00;99.90
6293;DHT22;3179;54.350;10.102;2023-08-07T02:34:28;18.00;99.90
6293;DHT22;3179;54.350;10.102;2023-08-07T02:36:55;18.00;99.90
6293;DHT22;3179;54.350;10.102;2023-08-07T02:39:22;18.00;99.90
6293;DHT22;3179;54.350;10.102;2023-08-07T02:41:49;18.00;99.90
6293;DHT22;3179;54.350;10.102;2023-08-07T02:44:16;18.00;99.90
6293;DHT22;3179;54.350;10.102;2023-08-07T02:46:45;18.00;99.90
6293;DHT22;3179;54.350;10.102;2023-08-07T02:49:12;18.00;99.90
6293;DHT22;3179;54.350;10.102;2023-08-07T02:51:38;18.00;99.90
6293;DHT22;3179;54.350;10.102;2023-08-07T02:54:05;17.90;99.90
6293;DHT22;3179;54.350;10.102;2023-08-07T02:56:32;17.90;99.90
6293;DHT22;3179;54.350;10.102;2023-08-07T02:58:59;17.90;99.90
6293;DHT22;3179;54.350;10.102;2023-08-07T03:01:27;17.90;99.90
6293;DHT22;3179;54.350;10.102;2023-08-07T03:03:55;17.90;99.90
6293;DHT22;3179;54.350;10.102;2023-08-07T03:06:22;17.90;99.90
6293;DHT22;3179;54.350;10.102;2023-08-07T03:08:49;17.90;99.90
6293;DHT22;3179;54.350;10.102;2023-08-07T03:11:16;17.90;99.90
6293;DHT22;3179;54.350;10.102;2023-08-07T03:13:43;17.90;99.90
6293;DHT22;3179;54.350;10.102;2023-08-07T03:16:10;17.90;99.90
6293;DHT22;3179;54.350;10.102;2023-08-07T03:18:37;17.90;99.90
6293;DHT22;3179;54.350;10.102;2023-08-07T03:21:05;17.90;99.90
6293;DHT22;3179;54.350;10.102;2023-08-07T03:23:31;17.90;99.90
6293;DHT22;3179;54.350;10.102;2023-08-07T03:26:02;17.90;99.90
6293;DHT22;3179;54.350;10.102;2023-08-07T03:28:29;17.90;99.90
6293;DHT22;3179;54.350;10.102;2023-08-07T03:30:56;17.80;99.90
6293;DHT22;3179;54.350;10.102;2023-08-07T03:33:22;17.80;99.90
6293;DHT22;3179;54.350;10.102;2023-08-07T03:35:49;17.80;99.90
6293;DHT22;3179;54.350;10.102;2023-08-07T03:38:18;17.80;99.90
6293;DHT22;3179;54.350;10.102;2023-08-07T03:40:44;17.90;99.90
6293;DHT22;3179;54.350;10.102;2023-08-07T03:43:11;17.80;99.90
6293;DHT22;3179;54.350;10.102;2023-08-07T03:45:38;17.80;99.90
6293;DHT22;3179;54.350;10.102;2023-08-07T03:48:05;17.90;99.90
6293;DHT22;3179;54.350;10.102;2023-08-07T03:50:32;17.80;99.90
6293;DHT22;3179;54.350;10.102;2023-08-07T03:53:02;17.80;99.90
6293;DHT22;3179;54.350;10.102;2023-08-07T03:55:30;17.80;99.90
6293;DHT22;3179;54.350;10.102;2023-08-07T03:57:57;17.90;99.90
6293;DHT22;3179;54.350;10.102;2023-08-07T04:00:24;17.80;99.90
6293;DHT22;3179;54.350;10.102;2023-08-07T04:02:51;17.80;99.90
6293;DHT22;3179;54.350;10.102;2023-08-07T04:05:18;17.90;99.90
6293;DHT22;3179;54.350;10.102;2023-08-07T04:07:45;17.80;99.90
6293;DHT22;3179;54.350;10.102;2023-08-07T04:10:12;17.90;99.90
6293;DHT22;3179;54.350;10.102;2023-08-07T04:12:40;17.80;99.90
6293;DHT22;3179;54.350;10.102;2023-08-07T04:15:07;17.90;99.90
6293;DHT22;3179;54.350;10.102;2023-08-07T04:17:35;17.90;99.90
6293;DHT22;3179;54.350;10.102;2023-08-07T04:20:03;17.90;99.90
6293;DHT22;3179;54.350;10.102;2023-08-07T04:22:30;17.80;99.90
6293;DHT22;3179;54.350;10.102;2023-08-07T04:24:57;17.80;99.90
6293;DHT22;3179;54.350;10.102;2023-08-07T04:27:25;17.90;99.90
6293;DHT22;3179;54.350;10.102;2023-08-07T04:29:53;17.90;99.90
6293;DHT22;3179;54.350;10.102;2023-08-07T04:32:20;17.90;99.90
6293;DHT22;3179;54.350;10.102;2023-08-07T04:34:47;17.80;99.90
6293;DHT22;3179;54.350;10.102;2023-08-07T04:37:14;17.90;99.90
6293;DHT22;3179;54.350;10.102;2023-08-07T04:39:40;17.80;99.90
6293;DHT22;3179;54.350;10.102;2023-08-07T04:42:07;17.80;99.90
6293;DHT22;3179;54.350;10.102;2023-08-07T04:44:34;17.90;99.90
6293;DHT22;3179;54.350;10.102;2023-08-07T04:47:02;17.90;99.90
6293;DHT22;3179;54.350;10.102;2023-08-07T04:49:29;17.90;99.90
6293;DHT22;3179;54.350;10.102;2023-08-07T04:51:56;17.90;99.90
6293;DHT22;3179;54.350;10.102;2023-08-07T04:54:22;17.90;99.90
6293;DHT22;3179;54.350;10.102;2023-08-07T04:56:49;17.90;99.90
6293;DHT22;3179;54.350;10.102;2023-08-07T04:59:16;17.90;99.90
6293;DHT22;3179;54.350;10.102;2023-08-07T05:01:43;17.90;99.90
6293;DHT22;3179;54.350;10.102;2023-08-07T05:04:11;17.90;99.90
6293;DHT22;3179;54.350;10.102;2023-08-07T05:06:37;17.90;99.90
6293;DHT22;3179;54.350;10.102;2023-08-07T05:09:04;17.90;99.90
6293;DHT22;3179;54.350;10.102;2023-08-07T05:11:32;17.90;99.90
6293;DHT22;3179;54.350;10.102;2023-08-07T05:13:59;17.90;99.90
6293;DHT22;3179;54.350;10.102;2023-08-07T05:16:26;17.90;99.90
6293;DHT22;3179;54.350;10.102;2023-08-07T05:18:53;18.00;99.90
6293;DHT22;3179;54.350;10.102;2023-08-07T05:21:21;18.00;99.90
6293;DHT22;3179;54.350;10.102;2023-08-07T05:23:47;18.00;99.90
6293;DHT22;3179;54.350;10.102;2023-08-07T05:26:18;18.00;99.90
6293;DHT22;3179;54.350;10.102;2023-08-07T05:28:45;18.00;99.90
6293;DHT22;3179;54.350;10.102;2023-08-07T05:31:12;18.00;99.90
6293;DHT22;3179;54.350;10.102;2023-08-07T05:33:39;18.00;99.90
6293;DHT22;3179;54.350;10.102;2023-08-07T05:36:06;18.00;99.90
6293;DHT22;3179;54.350;10.102;2023-08-07T05:38:34;18.10;99.90
6293;DHT22;3179;54.350;10.102;2023-08-07T05:41:01;18.10;99.90
6293;DHT22;3179;54.350;10.102;2023-08-07T05:43:28;18.10;99.90
6293;DHT22;3179;54.350;10.102;2023-08-07T05:45:55;18.20;99.90
6293;DHT22;3179;54.350;10.102;2023-08-07T05:48:22;18.20;99.90
6293;DHT22;3179;54.350;10.102;2023-08-07T05:50:48;18.20;99.90
6293;DHT22;3179;54.350;10.102;2023-08-07T05:53:15;18.20;99.90
6293;DHT22;3179;54.350;10.102;2023-08-07T05:55:43;18.20;99.90
6293;DHT22;3179;54.350;10.102;2023-08-07T05:58:10;18.20;99.90
6293;DHT22;3179;54.350;10.102;2023-08-07T06:00:37;18.20;99.90
6293;DHT22;3179;54.350;10.102;2023-08-07T06:03:04;18.20;99.90
6293;DHT22;3179;54.350;10.102;2023-08-07T06:05:31;18.20;99.90
6293;DHT22;3179;54.350;10.102;2023-08-07T06:07:57;18.20;99.90
6293;DHT22;3179;54.350;10.102;2023-08-07T06:10:25;18.20;99.90
6293;DHT22;3179;54.350;10.102;2023-08-07T06:12:53;18.20;99.90
6293;DHT22;3179;54.350;10.102;2023-08-07T06:15:20;18.20;99.90
6293;DHT22;3179;54.350;10.102;2023-08-07T06:17:46;18.20;99.90
6293;DHT22;3179;54.350;10.102;2023-08-07T06:20:13;18.20;99.90
6293;DHT22;3179;54.350;10.102;2023-08-07T06:22:41;18.20;99.90
6293;DHT22;3179;54.350;10.102;2023-08-07T06:25:09;18.20;99.90
6293;DHT22;3179;54.350;10.102;2023-08-07T06:27:35;18.30;99.90
6293;DHT22;3179;54.350;10.102;2023-08-07T06:30:04;18.20;99.90
6293;DHT22;3179;54.350;10.102;2023-08-07T06:32:32;18.30;99.90
6293;DHT22;3179;54.350;10.102;2023-08-07T06:34:58;18.30;99.90
6293;DHT22;3179;54.350;10.102;2023-08-07T06:37:25;18.30;99.90
6293;DHT22;3179;54.350;10.102;2023-08-07T06:39:52;18.30;99.90
6293;DHT22;3179;54.350;10.102;2023-08-07T06:42:19;18.30;99.90
6293;DHT22;3179;54.350;10.102;2023-08-07T06:44:46;18.30;99.90
6293;DHT22;3179;54.350;10.102;2023-08-07T06:47:14;18.40;99.90
6293;DHT22;3179;54.350;10.102;2023-08-07T06:49:41;18.30;99.90
6293;DHT22;3179;54.350;10.102;2023-08-07T06:52:08;18.40;99.90
6293;DHT22;3179;54.350;10.102;2023-08-07T06:54:34;18.40;99.90
6293;DHT22;3179;54.350;10.102;2023-08-07T06:57:01;18.40;99.90
6293;DHT22;3179;54.350;10.102;2023-08-07T06:59:28;18.40;99.90
6293;DHT22;3179;54.350;10.102;2023-08-07T07:01:55;18.40;99.90
6293;DHT22;3179;54.350;10.102;2023-08-07T07:04:23;18.40;99.90
6293;DHT22;3179;54.350;10.102;2023-08-07T07:06:49;18.40;99.90
6293;DHT22;3179;54.350;10.102;2023-08-07T07:09:16;18.40;99.90
6293;DHT22;3179;54.350;10.102;2023-08-07T07:11:43;18.40;99.90
6293;DHT22;3179;54.350;10.102;2023-08-07T07:14:10;18.40;99.90
6293;DHT22;3179;54.350;10.102;2023-08-07T07:16:37;18.50;99.90
6293;DHT22;3179;54.350;10.102;2023-08-07T07:19:04;18.40;99.90
6293;DHT22;3179;54.350;10.102;2023-08-07T07:21:35;18.40;99.90
6293;DHT22;3179;54.350;10.102;2023-08-07T07:24:02;18.50;99.90
6293;DHT22;3179;54.350;10.102;2023-08-07T07:26:29;18.50;99.90
6293;DHT22;3179;54.350;10.102;2023-08-07T07:28:56;18.50;99.90
6293;DHT22;3179;54.350;10.102;2023-08-07T07:31:23;18.50;99.90
6293;DHT22;3179;54.350;10.102;2023-08-07T07:33:49;18.50;99.90
6293;DHT22;3179;54.350;10.102;2023-08-07T07:36:16;18.50;99.90
6293;DHT22;3179;54.350;10.102;2023-08-07T07:38:47;18.50;99.90
6293;DHT22;3179;54.350;10.102;2023-08-07T07:41:14;18.50;99.90
6293;DHT22;3179;54.350;10.102;2023-08-07T07:43:41;18.50;99.90
6293;DHT22;3179;54.350;10.102;2023-08-07T07:46:07;18.50;99.90
6293;DHT22;3179;54.350;10.102;2023-08-07T07:48:34;18.60;99.90
6293;DHT22;3179;54.350;10.102;2023-08-07T07:51:02;18.60;99.90
6293;DHT22;3179;54.350;10.102;2023-08-07T07:53:29;18.60;99.90
6293;DHT22;3179;54.350;10.102;2023-08-07T07:55:57;18.60;99.90
6293;DHT22;3179;54.350;10.102;2023-08-07T07:58:24;18.70;99.90
6293;DHT22;3179;54.350;10.102;2023-08-07T08:00:51;18.70;99.90
6293;DHT22;3179;54.350;10.102;2023-08-07T08:03:20;18.70;99.90
6293;DHT22;3179;54.350;10.102;2023-08-07T08:05:49;18.80;99.90
6293;DHT22;3179;54.350;10.102;2023-08-07T08:08:16;18.80;99.90
6293;DHT22;3179;54.350;10.102;2023-08-07T08:10:44;18.80;99.90
6293;DHT22;3179;54.350;10.102;2023-08-07T08:13:13;18.80;99.90
6293;DHT22;3179;54.350;10.102;2023-08-07T08:15:40;18.80;99.90
6293;DHT22;3179;54.350;10.102;2023-08-07T08:18:07;18.90;99.90
6293;DHT22;3179;54.350;10.102;2023-08-07T08:20:34;19.00;99.90
6293;DHT22;3179;54.350;10.102;2023-08-07T08:23:00;19.00;99.90
6293;DHT22;3179;54.350;10.102;2023-08-07T08:25:27;19.00;99.90
6293;DHT22;3179;54.350;10.102;2023-08-07T08:27:54;19.00;99.90
6293;DHT22;3179;54.350;10.102;2023-08-07T08:30:22;19.00;99.90
6293;DHT22;3179;54.350;10.102;2023-08-07T08:32:49;19.00;99.90
6293;DHT22;3179;54.350;10.102;2023-08-07T08:35:16;19.00;99.90
6293;DHT22;3179;54.350;10.102;2023-08-07T08:37:43;19.00;99.90
6293;DHT22;3179;54.350;10.102;2023-08-07T08:40:10;19.00;99.90
6293;DHT22;3179;54.350;10.102;2023-08-07T08:42:43;19.00;99.90
6293;DHT22;3179;54.350;10.102;2023-08-07T08:45:12;19.00;99.90
6293;DHT22;3179;54.350;10.102;2023-08-07T08:47:41;19.00;99.90
6293;DHT22;3179;54.350;10.102;2023-08-07T08:50:10;19.10;99.90
6293;DHT22;3179;54.350;10.102;2023-08-07T08:52:40;19.10;99.90
6293;DHT22;3179;54.350;10.102;2023-08-07T08:55:07;19.10;99.90
6293;DHT22;3179;54.350;10.102;2023-08-07T08:57:35;19.10;99.90
6293;DHT22;3179;54.350;10.102;2023-08-07T09:00:05;19.20;99.90
6293;DHT22;3179;54.350;10.102;2023-08-07T09:02:44;19.20;99.90
6293;DHT22;3179;54.350;10.102;2023-08-07T09:05:11;19.20;99.90
6293;DHT22;3179;54.350;10.102;2023-08-07T09:07:38;19.20;99.90
6293;DHT22;3179;54.350;10.102;2023-08-07T09:10:06;19.20;99.90
6293;DHT22;3179;54.350;10.102;2023-08-07T09:12:33;19.20;99.90
6293;DHT22;3179;54.350;10.102;2023-08-07T09:15:02;19.30;99.90
6293;DHT22;3179;54.350;10.102;2023-08-07T09:17:31;19.30;99.90
6293;DHT22;3179;54.350;10.102;2023-08-07T09:20:01;19.40;99.90
6293;DHT22;3179;54.350;10.102;2023-08-07T09:22:29;19.40;99.90
6293;DHT22;3179;54.350;10.102;2023-08-07T09:24:56;19.40;99.90
6293;DHT22;3179;54.350;10.102;2023-08-07T09:27:25;19.40;99.90
6293;DHT22;3179;54.350;10.102;2023-08-07T09:29:54;19.30;99.90
6293;DHT22;3179;54.350;10.102;2023-08-07T09:32:22;19.40;99.90
6293;DHT22;3179;54.350;10.102;2023-08-07T09:34:49;19.40;99.90
6293;DHT22;3179;54.350;10.102;2023-08-07T09:37:18;19.50;99.90
6293;DHT22;3179;54.350;10.102;2023-08-07T09:39:46;19.50;99.90
6293;DHT22;3179;54.350;10.102;2023-08-07T09:42:14;19.50;99.90
6293;DHT22;3179;54.350;10.102;2023-08-07T09:44:41;19.60;99.90
6293;DHT22;3179;54.350;10.102;2023-08-07T09:47:12;19.70;99.90
6293;DHT22;3179;54.350;10.102;2023-08-07T09:49:39;19.80;99.90
6293;DHT22;3179;54.350;10.102;2023-08-07T09:52:07;19.70;99.90
6293;DHT22;3179;54.350;10.102;2023-08-07T09:54:36;19.70;99.90
6293;DHT22;3179;54.350;10.102;2023-08-07T09:57:03;19.70;99.90
6293;DHT22;3179;54.350;10.102;2023-08-07T09:59:31;19.70;99.90
6293;DHT22;3179;54.350;10.102;2023-08-07T10:02:00;19.70;99.90
6293;DHT22;3179;54.350;10.102;2023-08-07T10:04:27;19.80;99.90
6293;DHT22;3179;54.350;10.102;2023-08-07T10:06:54;19.80;99.90
6293;DHT22;3179;54.350;10.102;2023-08-07T10:09:22;19.70;99.90
6293;DHT22;3179;54.350;10.102;2023-08-07T10:11:50;19.70;99.90
6293;DHT22;3179;54.350;10.102;2023-08-07T10:14:18;19.60;99.90
6293;DHT22;3179;54.350;10.102;2023-08-07T10:16:45;19.70;99.90
6293;DHT22;3179;54.350;10.102;2023-08-07T10:19:13;19.70;99.90
6293;DHT22;3179;54.350;10.102;2023-08-07T10:21:40;19.70;99.90
6293;DHT22;3179;54.350;10.102;2023-08-07T10:24:09;19.80;99.90
6293;DHT22;3179;54.350;10.102;2023-08-07T10:26:39;19.90;99.90
6293;DHT22;3179;54.350;10.102;2023-08-07T10:29:13;20.10;99.90
6293;DHT22;3179;54.350;10.102;2023-08-07T10:31:41;20.30;99.90
6293;DHT22;3179;54.350;10.102;2023-08-07T10:34:09;20.40;99.90
6293;DHT22;3179;54.350;10.102;2023-08-07T10:36:36;20.40;99.90
6293;DHT22;3179;54.350;10.102;2023-08-07T10:39:07;20.40;99.90
6293;DHT22;3179;54.350;10.102;2023-08-07T10:41:38;20.30;99.90
6293;DHT22;3179;54.350;10.102;2023-08-07T10:44:05;20.20;99.90
6293;DHT22;3179;54.350;10.102;2023-08-07T10:46:47;20.20;99.90
6293;DHT22;3179;54.350;10.102;2023-08-07T10:49:30;20.30;99.90
6293;DHT22;3179;54.350;10.102;2023-08-07T10:51:58;20.40;99.90
6293;DHT22;3179;54.350;10.102;2023-08-07T10:54:25;20.40;99.90
6293;DHT22;3179;54.350;10.102;2023-08-07T10:56:53;20.60;99.90
6293;DHT22;3179;54.350;10.102;2023-08-07T10:59:20;20.60;99.90
6293;DHT22;3179;54.350;10.102;2023-08-07T11:01:53;20.70;99.90
6293;DHT22;3179;54.350;10.102;2023-08-07T11:04:22;20.80;99.90
6293;DHT22;3179;54.350;10.102;2023-08-07T11:06:52;20.80;99.90
6293;DHT22;3179;54.350;10.102;2023-08-07T11:09:19;20.80;99.90
6293;DHT22;3179;54.350;10.102;2023-08-07T11:11:47;20.70;99.90
6293;DHT22;3179;54.350;10.102;2023-08-07T11:14:15;20.60;99.90
6293;DHT22;3179;54.350;10.102;2023-08-07T11:16:44;20.50;99.90
6293;DHT22;3179;54.350;10.102;2023-08-07T11:19:14;20.50;99.90
6293;DHT22;3179;54.350;10.102;2023-08-07T11:21:41;20.50;99.90
6293;DHT22;3179;54.350;10.102;2023-08-07T11:24:13;20.50;99.90
6293;DHT22;3179;54.350;10.102;2023-08-07T11:26:42;20.50;99.90
6293;DHT22;3179;54.350;10.102;2023-08-07T11:29:09;20.50;99.90
6293;DHT22;3179;54.350;10.102;2023-08-07T11:31:35;20.50;99.90
6293;DHT22;3179;54.350;10.102;2023-08-07T11:34:02;20.60;99.90
6293;DHT22;3179;54.350;10.102;2023-08-07T11:36:30;20.60;99.90
6293;DHT22;3179;54.350;10.102;2023-08-07T11:38:59;20.60;99.90
6293;DHT22;3179;54.350;10.102;2023-08-07T11:41:26;20.50;99.90
6293;DHT22;3179;54.350;10.102;2023-08-07T11:43:52;20.40;99.90
6293;DHT22;3179;54.350;10.102;2023-08-07T11:46:19;20.40;99.90
6293;DHT22;3179;54.350;10.102;2023-08-07T11:48:47;20.40;99.90
6293;DHT22;3179;54.350;10.102;2023-08-07T11:51:14;20.30;99.90
6293;DHT22;3179;54.350;10.102;2023-08-07T11:53:42;20.20;99.90
6293;DHT22;3179;54.350;10.102;2023-08-07T11:56:10;20.10;99.90
6293;DHT22;3179;54.350;10.102;2023-08-07T11:58:40;20.10;99.90
6293;DHT22;3179;54.350;10.102;2023-08-07T12:01:10;20.10;99.90
6293;DHT22;3179;54.350;10.102;2023-08-07T12:03:39;20.20;99.90
6293;DHT22;3179;54.350;10.102;2023-08-07T12:06:07;20.20;99.90
6293;DHT22;3179;54.350;10.102;2023-08-07T12:08:35;20.30;99.90
6293;DHT22;3179;54.350;10.102;2023-08-07T12:11:05;20.30;99.90
6293;DHT22;3179;54.350;10.102;2023-08-07T12:13:32;20.20;99.90
6293;DHT22;3179;54.350;10.102;2023-08-07T12:16:01;20.20;99.90
6293;DHT22;3179;54.350;10.102;2023-08-07T12:18:30;20.20;99.90
6293;DHT22;3179;54.350;10.102;2023-08-07T12:20:58;20.30;99.90
6293;DHT22;3179;54.350;10.102;2023-08-07T12:23:25;20.40;99.90
6293;DHT22;3179;54.350;10.102;2023-08-07T12:25:52;20.40;99.90
6293;DHT22;3179;54.350;10.102;2023-08-07T12:28:20;20.60;99.90
6293;DHT22;3179;54.350;10.102;2023-08-07T12:30:48;20.60;99.90
6293;DHT22;3179;54.350;10.102;2023-08-07T12:33:15;20.70;99.90
6293;DHT22;3179;54.350;10.102;2023-08-07T12:35:41;20.90;99.90
6293;DHT22;3179;54.350;10.102;2023-08-07T12:38:08;20.90;99.90
6293;DHT22;3179;54.350;10.102;2023-08-07T12:40:36;20.90;99.90
6293;DHT22;3179;54.350;10.102;2023-08-07T12:43:03;20.80;99.90
6293;DHT22;3179;54.350;10.102;2023-08-07T12:45:32;20.60;99.90
6293;DHT22;3179;54.350;10.102;2023-08-07T12:47:59;20.40;99.90
6293;DHT22;3179;54.350;10.102;2023-08-07T12:50:27;20.30;99.90
6293;DHT22;3179;54.350;10.102;2023-08-07T12:52:54;20.20;99.90
6293;DHT22;3179;54.350;10.102;2023-08-07T12:55:20;20.30;99.90
6293;DHT22;3179;54.350;10.102;2023-08-07T12:57:47;20.50;99.90
6293;DHT22;3179;54.350;10.102;2023-08-07T13:00:15;20.80;99.90
6293;DHT22;3179;54.350;10.102;2023-08-07T13:02:46;20.80;99.90
6293;DHT22;3179;54.350;10.102;2023-08-07T13:05:13;20.80;99.90
6293;DHT22;3179;54.350;10.102;2023-08-07T13:07:41;20.70;99.90
6293;DHT22;3179;54.350;10.102;2023-08-07T13:10:10;20.50;99.90
6293;DHT22;3179;54.350;10.102;2023-08-07T13:12:38;20.40;99.90
6293;DHT22;3179;54.350;10.102;2023-08-07T13:15:06;20.40;99.90
6293;DHT22;3179;54.350;10.102;2023-08-07T13:17:33;20.40;99.90
6293;DHT22;3179;54.350;10.102;2023-08-07T13:20:04;20.40;99.90
6293;DHT22;3179;54.350;10.102;2023-08-07T13:22:33;20.40;99.90
6293;DHT22;3179;54.350;10.102;2023-08-07T13:25:00;20.40;99.90
6293;DHT22;3179;54.350;10.102;2023-08-07T13:27:29;20.40;99.90
6293;DHT22;3179;54.350;10.102;2023-08-07T13:29:56;20.50;99.90
6293;DHT22;3179;54.350;10.102;2023-08-07T13:32:23;20.80;99.90
6293;DHT22;3179;54.350;10.102;2023-08-07T13:34:50;20.90;99.90
6293;DHT22;3179;54.350;10.102;2023-08-07T13:37:19;20.90;99.90
6293;DHT22;3179;54.350;10.102;2023-08-07T13:39:46;21.00;99.90
6293;DHT22;3179;54.350;10.102;2023-08-07T13:42:15;21.10;99.90
6293;DHT22;3179;54.350;10.102;2023-08-07T13:44:42;21.30;99.90
6293;DHT22;3179;54.350;10.102;2023-08-07T13:47:10;21.40;99.90
6293;DHT22;3179;54.350;10.102;2023-08-07T13:49:37;21.30;99.90
6293;DHT22;3179;54.350;10.102;2023-08-07T13:52:05;21.20;99.90
6293;DHT22;3179;54.350;10.102;2023-08-07T13:54:33;21.20;99.90
6293;DHT22;3179;54.350;10.102;2023-08-07T13:57:00;21.10;99.90
6293;DHT22;3179;54.350;10.102;2023-08-07T13:59:26;21.10;99.90
6293;DHT22;3179;54.350;10.102;2023-08-07T14:01:53;21.10;99.90
6293;DHT22;3179;54.350;10.102;2023-08-07T14:04:21;21.10;99.90
6293;DHT22;3179;54.350;10.102;2023-08-07T14:06:48;21.00;99.90
6293;DHT22;3179;54.350;10.102;2023-08-07T14:09:15;20.90;99.90
6293;DHT22;3179;54.350;10.102;2023-08-07T14:11:45;21.00;99.90
6293;DHT22;3179;54.350;10.102;2023-08-07T14:14:11;21.20;99.90
6293;DHT22;3179;54.350;10.102;2023-08-07T14:16:38;21.20;99.90
6293;DHT22;3179;54.350;10.102;2023-08-07T14:19:05;21.20;99.90
6293;DHT22;3179;54.350;10.102;2023-08-07T14:21:32;21.30;99.90
6293;DHT22;3179;54.350;10.102;2023-08-07T14:23:59;21.30;99.90
6293;DHT22;3179;54.350;10.102;2023-08-07T14:26:26;21.30;99.90
6293;DHT22;3179;54.350;10.102;2023-08-07T14:28:55;21.30;99.90
6293;DHT22;3179;54.350;10.102;2023-08-07T14:31:22;21.20;99.90
6293;DHT22;3179;54.350;10.102;2023-08-07T14:33:49;21.10;99.90
6293;DHT22;3179;54.350;10.102;2023-08-07T14:36:17;21.00;99.90
6293;DHT22;3179;54.350;10.102;2023-08-07T14:38:44;20.90;99.90
6293;DHT22;3179;54.350;10.102;2023-08-07T14:41:11;20.80;99.90
6293;DHT22;3179;54.350;10.102;2023-08-07T14:43:38;20.70;99.90
6293;DHT22;3179;54.350;10.102;2023-08-07T14:46:06;20.60;99.90
6293;DHT22;3179;54.350;10.102;2023-08-07T14:48:33;20.50;99.90
6293;DHT22;3179;54.350;10.102;2023-08-07T14:51:00;20.50;99.90
6293;DHT22;3179;54.350;10.102;2023-08-07T14:53:26;20.40;99.90
6293;DHT22;3179;54.350;10.102;2023-08-07T14:55:53;20.50;99.90
6293;DHT22;3179;54.350;10.102;2023-08-07T14:58:20;20.50;99.90
6293;DHT22;3179;54.350;10.102;2023-08-07T15:00:47;20.40;99.90
6293;DHT22;3179;54.350;10.102;2023-08-07T15:03:17;20.30;99.90
6293;DHT22;3179;54.350;10.102;2023-08-07T15:05:43;20.20;99.90
6293;DHT22;3179;54.350;10.102;2023-08-07T15:08:10;20.20;99.90
6293;DHT22;3179;54.350;10.102;2023-08-07T15:10:37;20.20;99.90
6293;DHT22;3179;54.350;10.102;2023-08-07T15:13:05;20.10;99.90
6293;DHT22;3179;54.350;10.102;2023-08-07T15:15:32;20.10;99.90
6293;DHT22;3179;54.350;10.102;2023-08-07T15:17:59;20.10;99.90
6293;DHT22;3179;54.350;10.102;2023-08-07T15:20:29;20.10;99.90
6293;DHT22;3179;54.350;10.102;2023-08-07T15:22:56;20.10;99.90
6293;DHT22;3179;54.350;10.102;2023-08-07T15:25:23;20.10;99.90
6293;DHT22;3179;54.350;10.102;2023-08-07T15:27:49;20.10;99.90
6293;DHT22;3179;54.350;10.102;2023-08-07T15:30:17;20.00;99.90
6293;DHT22;3179;54.350;10.102;2023-08-07T15:32:43;20.10;99.90
6293;DHT22;3179;54.350;10.102;2023-08-07T15:35:10;20.10;99.90
6293;DHT22;3179;54.350;10.102;2023-08-07T15:37:39;20.20;99.90
6293;DHT22;3179;54.350;10.102;2023-08-07T15:40:07;20.30;99.90
6293;DHT22;3179;54.350;10.102;2023-08-07T15:42:34;20.30;99.90
6293;DHT22;3179;54.350;10.102;2023-08-07T15:45:01;20.30;99.90
6293;DHT22;3179;54.350;10.102;2023-08-07T15:47:29;20.30;99.90